createdAt,value
2019-01-23T00:00:06.116Z,994.68
2019-01-23T00:00:32.315Z,994.68
2019-01-23T00:00:58.449Z,994.69
2019-01-23T00:01:24.586Z,994.68
2019-01-23T00:01:50.724Z,994.7
2019-01-23T00:02:16.894Z,994.68
2019-01-23T00:02:43.033Z,994.65
2019-01-23T00:03:09.169Z,994.62
2019-01-23T00:03:35.313Z,994.66
2019-01-23T00:04:01.466Z,994.64
2019-01-23T00:04:27.625Z,994.67
2019-01-23T00:04:53.781Z,994.64
2019-01-23T00:05:19.935Z,994.64
2019-01-23T00:05:46.095Z,994.62
2019-01-23T00:06:12.242Z,994.62
2019-01-23T00:06:38.395Z,994.64
2019-01-23T00:07:04.554Z,994.64
2019-01-23T00:07:30.743Z,994.61
2019-01-23T00:07:56.895Z,994.6
2019-01-23T00:08:23.050Z,994.64
2019-01-23T00:08:49.204Z,994.6
2019-01-23T00:09:15.356Z,994.58
2019-01-23T00:09:41.511Z,994.58
2019-01-23T00:10:07.663Z,994.59
2019-01-23T00:10:33.815Z,994.56
2019-01-23T00:10:59.967Z,994.57
2019-01-23T00:11:26.157Z,994.59
2019-01-23T00:11:52.304Z,994.57
2019-01-23T00:12:18.460Z,994.58
2019-01-23T00:12:44.611Z,994.58
2019-01-23T00:13:10.770Z,994.6
2019-01-23T00:13:36.921Z,994.6
2019-01-23T00:14:03.123Z,994.57
2019-01-23T00:14:29.281Z,994.58
2019-01-23T00:14:55.473Z,994.58
2019-01-23T00:15:21.625Z,994.52
2019-01-23T00:15:47.775Z,994.58
2019-01-23T00:16:13.967Z,994.61
2019-01-23T00:16:40.122Z,994.58
2019-01-23T00:17:06.278Z,994.59
2019-01-23T00:17:32.433Z,994.53
2019-01-23T00:17:58.591Z,994.55
2019-01-23T00:18:24.743Z,994.62
2019-01-23T00:18:50.895Z,994.58
2019-01-23T00:19:17.045Z,994.53
2019-01-23T00:19:43.196Z,994.54
2019-01-23T00:20:09.346Z,994.54
2019-01-23T00:20:35.505Z,994.54
2019-01-23T00:21:01.658Z,994.53
2019-01-23T00:21:27.815Z,994.51
2019-01-23T00:21:53.967Z,994.53
2019-01-23T00:22:20.122Z,994.53
2019-01-23T00:22:46.314Z,994.52
2019-01-23T00:23:12.500Z,994.46
2019-01-23T00:23:38.661Z,994.53
2019-01-23T00:24:04.847Z,994.54
2019-01-23T00:24:31.004Z,994.53
2019-01-23T00:24:57.160Z,994.47
2019-01-23T00:25:23.309Z,994.51
2019-01-23T00:25:49.455Z,994.49
2019-01-23T00:26:15.609Z,994.52
2019-01-23T00:26:41.767Z,994.49
2019-01-23T00:27:07.926Z,994.47
2019-01-23T00:27:34.079Z,994.49
2019-01-23T00:28:00.279Z,994.46
2019-01-23T00:28:26.430Z,994.49
2019-01-23T00:28:53.579Z,994.43
2019-01-23T00:29:19.734Z,994.46
2019-01-23T00:29:45.897Z,994.43
2019-01-23T00:30:12.051Z,994.42
2019-01-23T00:30:38.203Z,994.41
2019-01-23T00:31:04.354Z,994.36
2019-01-23T00:31:30.509Z,994.38
2019-01-23T00:31:56.666Z,994.38
2019-01-23T00:32:22.818Z,994.39
2019-01-23T00:32:48.965Z,994.35
2019-01-23T00:33:15.125Z,994.34
2019-01-23T00:33:41.274Z,994.36
2019-01-23T00:34:07.439Z,994.33
2019-01-23T00:34:33.624Z,994.34
2019-01-23T00:34:59.778Z,994.32
2019-01-23T00:35:25.934Z,994.31
2019-01-23T00:35:52.088Z,994.33
2019-01-23T00:36:18.278Z,994.32
2019-01-23T00:36:44.473Z,994.32
2019-01-23T00:37:10.661Z,994.3
2019-01-23T00:37:36.812Z,994.31
2019-01-23T00:38:02.965Z,994.31
2019-01-23T00:38:30.108Z,994.28
2019-01-23T00:38:56.302Z,994.28
2019-01-23T00:39:22.493Z,994.28
2019-01-23T00:39:48.679Z,994.29
2019-01-23T00:40:14.871Z,994.25
2019-01-23T00:40:41.020Z,994.28
2019-01-23T00:41:07.213Z,994.24
2019-01-23T00:41:33.370Z,994.2
2019-01-23T00:41:59.518Z,994.23
2019-01-23T00:42:25.674Z,994.26
2019-01-23T00:42:51.866Z,994.25
2019-01-23T00:43:18.014Z,994.24
2019-01-23T00:43:44.206Z,994.26
2019-01-23T00:44:10.355Z,994.26
2019-01-23T00:44:36.507Z,994.3
2019-01-23T00:45:02.661Z,994.22
2019-01-23T00:45:28.812Z,994.24
2019-01-23T00:45:55.002Z,994.22
2019-01-23T00:46:21.159Z,994.17
2019-01-23T00:46:47.312Z,994.21
2019-01-23T00:47:13.464Z,994.22
2019-01-23T00:47:39.614Z,994.22
2019-01-23T00:48:05.768Z,994.18
2019-01-23T00:48:31.924Z,994.16
2019-01-23T00:48:58.078Z,994.12
2019-01-23T00:49:24.274Z,994.19
2019-01-23T00:49:50.427Z,994.18
2019-01-23T00:50:16.611Z,994.18
2019-01-23T00:50:42.768Z,994.15
2019-01-23T00:51:08.918Z,994.17
2019-01-23T00:51:35.075Z,994.14
2019-01-23T00:52:01.224Z,994.13
2019-01-23T00:52:27.385Z,994.12
2019-01-23T00:52:53.580Z,994.17
2019-01-23T00:53:19.770Z,994.16
2019-01-23T00:53:45.922Z,994.15
2019-01-23T00:54:12.078Z,994.14
2019-01-23T00:54:38.231Z,994.13
2019-01-23T00:55:04.386Z,994.14
2019-01-23T00:55:30.579Z,994.14
2019-01-23T00:55:56.732Z,994.15
2019-01-23T00:56:22.886Z,994.16
2019-01-23T00:56:49.037Z,994.15
2019-01-23T00:57:15.200Z,994.17
2019-01-23T00:57:41.351Z,994.17
2019-01-23T00:58:07.542Z,994.19
2019-01-23T00:58:33.695Z,994.15
2019-01-23T00:59:00.839Z,994.15
2019-01-23T00:59:26.992Z,994.17
2019-01-23T00:59:53.158Z,994.15
2019-01-23T01:00:19.307Z,994.11
2019-01-23T01:00:45.461Z,994.12
2019-01-23T01:01:12.600Z,994.13
2019-01-23T01:01:38.741Z,994.19
2019-01-23T01:02:04.896Z,994.16
2019-01-23T01:02:31.055Z,994.1
2019-01-23T01:02:57.207Z,994.12
2019-01-23T01:03:23.367Z,994.11
2019-01-23T01:03:49.582Z,994.13
2019-01-23T01:04:15.738Z,994.12
2019-01-23T01:04:41.891Z,994.14
2019-01-23T01:05:08.043Z,994.13
2019-01-23T01:05:34.196Z,994.14
2019-01-23T01:06:00.348Z,994.15
2019-01-23T01:06:26.497Z,994.17
2019-01-23T01:06:52.760Z,994.14
2019-01-23T01:07:18.905Z,994.19
2019-01-23T01:07:45.057Z,994.13
2019-01-23T01:08:11.211Z,994.13
2019-01-23T01:08:37.363Z,994.16
2019-01-23T01:09:03.518Z,994.09
2019-01-23T01:09:29.673Z,994.14
2019-01-23T01:09:55.827Z,994.16
2019-01-23T01:10:21.978Z,994.14
2019-01-23T01:10:48.136Z,994.18
2019-01-23T01:11:14.317Z,994.16
2019-01-23T01:11:40.472Z,994.18
2019-01-23T01:12:06.661Z,994.17
2019-01-23T01:12:32.815Z,994.14
2019-01-23T01:12:58.963Z,994.16
2019-01-23T01:13:25.120Z,994.15
2019-01-23T01:13:51.281Z,994.14
2019-01-23T01:14:17.469Z,994.14
2019-01-23T01:14:43.621Z,994.17
2019-01-23T01:15:13.368Z,994.13
2019-01-23T01:15:36.927Z,994.14
2019-01-23T01:16:03.078Z,994.2
2019-01-23T01:16:29.229Z,994.17
2019-01-23T01:16:55.382Z,994.16
2019-01-23T01:17:21.575Z,994.16
2019-01-23T01:17:47.718Z,994.17
2019-01-23T01:18:13.870Z,994.16
2019-01-23T01:18:40.061Z,994.12
2019-01-23T01:19:06.223Z,994.13
2019-01-23T01:19:32.377Z,994.13
2019-01-23T01:19:58.532Z,994.14
2019-01-23T01:20:24.691Z,994.16
2019-01-23T01:20:50.839Z,994.15
2019-01-23T01:21:16.992Z,994.1
2019-01-23T01:21:43.143Z,994.12
2019-01-23T01:22:09.291Z,994.1
2019-01-23T01:22:35.447Z,994.11
2019-01-23T01:23:01.597Z,994.03
2019-01-23T01:23:27.797Z,994.08
2019-01-23T01:23:53.948Z,994.09
2019-01-23T01:24:20.096Z,994.05
2019-01-23T01:24:46.250Z,994.08
2019-01-23T01:25:12.435Z,994.05
2019-01-23T01:25:38.592Z,994.05
2019-01-23T01:26:04.784Z,994.08
2019-01-23T01:26:30.943Z,994.07
2019-01-23T01:26:57.097Z,994.06
2019-01-23T01:27:23.252Z,994.05
2019-01-23T01:27:49.401Z,994.04
2019-01-23T01:28:15.591Z,994.02
2019-01-23T01:28:41.745Z,994.07
2019-01-23T01:29:08.894Z,994.05
2019-01-23T01:29:35.045Z,994.1
2019-01-23T01:30:01.241Z,994.08
2019-01-23T01:30:27.386Z,994.05
2019-01-23T01:30:53.579Z,994.05
2019-01-23T01:31:19.730Z,994.08
2019-01-23T01:31:45.887Z,994.06
2019-01-23T01:32:12.082Z,994.07
2019-01-23T01:32:38.232Z,994.05
2019-01-23T01:33:04.420Z,994.05
2019-01-23T01:33:33.936Z,994.06
2019-01-23T01:33:57.723Z,994.04
2019-01-23T01:34:23.875Z,994.07
2019-01-23T01:34:50.035Z,994.03
2019-01-23T01:35:16.185Z,994.04
2019-01-23T01:35:42.342Z,994.02
2019-01-23T01:36:08.495Z,994.02
2019-01-23T01:36:34.645Z,994.02
2019-01-23T01:37:00.800Z,993.99
2019-01-23T01:37:26.951Z,993.99
2019-01-23T01:37:53.110Z,994.03
2019-01-23T01:38:19.308Z,994.04
2019-01-23T01:38:45.461Z,994.04
2019-01-23T01:39:11.610Z,994.04
2019-01-23T01:39:37.802Z,994
2019-01-23T01:40:03.957Z,994.02
2019-01-23T01:40:31.097Z,994.04
2019-01-23T01:40:57.260Z,994
2019-01-23T01:41:23.409Z,994.01
2019-01-23T01:41:49.559Z,994.02
2019-01-23T01:42:15.719Z,994.03
2019-01-23T01:42:41.874Z,994
2019-01-23T01:43:08.014Z,994.01
2019-01-23T01:43:34.161Z,994.01
2019-01-23T01:44:00.318Z,994
2019-01-23T01:44:26.469Z,994.02
2019-01-23T01:44:52.935Z,993.98
2019-01-23T01:45:19.081Z,994.01
2019-01-23T01:45:45.236Z,993.97
2019-01-23T01:46:11.431Z,994
2019-01-23T01:46:37.587Z,993.98
2019-01-23T01:47:03.737Z,994.04
2019-01-23T01:47:29.891Z,994.03
2019-01-23T01:47:56.048Z,994
2019-01-23T01:48:22.201Z,994.04
2019-01-23T01:48:48.386Z,994.01
2019-01-23T01:49:14.540Z,994.02
2019-01-23T01:49:40.728Z,994.01
2019-01-23T01:50:06.920Z,993.99
2019-01-23T01:50:33.068Z,994.01
2019-01-23T01:50:59.226Z,993.98
2019-01-23T01:51:25.380Z,993.99
2019-01-23T01:51:51.531Z,994.01
2019-01-23T01:52:17.675Z,993.98
2019-01-23T01:52:43.833Z,994.01
2019-01-23T01:53:09.988Z,994
2019-01-23T01:53:36.142Z,993.98
2019-01-23T01:54:02.332Z,993.99
2019-01-23T01:54:28.484Z,993.96
2019-01-23T01:54:54.632Z,993.97
2019-01-23T01:55:20.831Z,993.96
2019-01-23T01:55:46.977Z,993.96
2019-01-23T01:56:13.131Z,993.95
2019-01-23T01:56:39.292Z,993.93
2019-01-23T01:57:05.441Z,993.92
2019-01-23T01:57:31.635Z,993.94
2019-01-23T01:57:57.792Z,993.96
2019-01-23T01:58:24.939Z,993.96
2019-01-23T01:58:51.094Z,993.94
2019-01-23T01:59:18.698Z,993.94
2019-01-23T01:59:44.847Z,993.92
2019-01-23T02:00:11.036Z,993.95
2019-01-23T02:00:37.192Z,993.93
2019-01-23T02:01:03.344Z,993.92
2019-01-23T02:01:29.494Z,993.91
2019-01-23T02:01:55.647Z,993.96
2019-01-23T02:02:21.799Z,993.92
2019-01-23T02:02:48.021Z,993.9
2019-01-23T02:03:15.648Z,993.89
2019-01-23T02:03:41.371Z,993.92
2019-01-23T02:04:07.516Z,993.91
2019-01-23T02:04:33.668Z,993.92
2019-01-23T02:04:59.823Z,993.9
2019-01-23T02:05:25.973Z,993.86
2019-01-23T02:05:52.130Z,993.9
2019-01-23T02:06:18.279Z,993.88
2019-01-23T02:06:44.433Z,993.88
2019-01-23T02:07:10.593Z,993.88
2019-01-23T02:07:36.742Z,993.84
2019-01-23T02:08:02.898Z,993.86
2019-01-23T02:08:29.049Z,993.86
2019-01-23T02:08:55.196Z,993.86
2019-01-23T02:09:21.388Z,993.88
2019-01-23T02:09:49.519Z,993.86
2019-01-23T02:10:15.712Z,993.86
2019-01-23T02:10:41.872Z,993.86
2019-01-23T02:11:08.023Z,993.82
2019-01-23T02:11:34.171Z,993.85
2019-01-23T02:12:00.336Z,993.83
2019-01-23T02:12:26.494Z,993.81
2019-01-23T02:12:52.641Z,993.83
2019-01-23T02:13:18.802Z,993.8
2019-01-23T02:13:44.955Z,993.83
2019-01-23T02:14:11.112Z,993.86
2019-01-23T02:14:37.266Z,993.83
2019-01-23T02:15:03.419Z,993.82
2019-01-23T02:15:29.573Z,993.84
2019-01-23T02:15:55.719Z,993.82
2019-01-23T02:16:21.871Z,993.79
2019-01-23T02:16:48.063Z,993.83
2019-01-23T02:17:14.211Z,993.82
2019-01-23T02:17:40.434Z,993.8
2019-01-23T02:18:06.595Z,993.8
2019-01-23T02:18:32.752Z,993.84
2019-01-23T02:18:58.897Z,993.82
2019-01-23T02:19:25.089Z,993.81
2019-01-23T02:19:51.244Z,993.8
2019-01-23T02:20:17.392Z,993.83
2019-01-23T02:20:43.617Z,993.8
2019-01-23T02:21:09.773Z,993.83
2019-01-23T02:21:35.927Z,993.82
2019-01-23T02:22:02.078Z,993.81
2019-01-23T02:22:28.217Z,993.84
2019-01-23T02:22:54.405Z,993.82
2019-01-23T02:23:21.443Z,993.83
2019-01-23T02:23:47.637Z,993.84
2019-01-23T02:24:13.827Z,993.76
2019-01-23T02:24:39.985Z,993.82
2019-01-23T02:25:06.139Z,993.81
2019-01-23T02:25:32.300Z,993.78
2019-01-23T02:25:58.448Z,993.78
2019-01-23T02:26:24.638Z,993.75
2019-01-23T02:26:50.789Z,993.78
2019-01-23T02:27:16.940Z,993.74
2019-01-23T02:27:43.095Z,993.74
2019-01-23T02:28:09.293Z,993.73
2019-01-23T02:28:35.482Z,993.76
2019-01-23T02:29:01.640Z,993.73
2019-01-23T02:29:28.774Z,993.72
2019-01-23T02:29:54.965Z,993.74
2019-01-23T02:30:21.235Z,993.75
2019-01-23T02:30:47.433Z,993.75
2019-01-23T02:31:13.588Z,993.78
2019-01-23T02:31:39.745Z,993.74
2019-01-23T02:32:05.899Z,993.71
2019-01-23T02:32:32.084Z,993.72
2019-01-23T02:32:58.242Z,993.7
2019-01-23T02:33:24.393Z,993.68
2019-01-23T02:33:50.591Z,993.71
2019-01-23T02:34:16.741Z,993.71
2019-01-23T02:34:42.985Z,993.72
2019-01-23T02:35:09.175Z,993.72
2019-01-23T02:35:35.361Z,993.67
2019-01-23T02:36:01.508Z,993.74
2019-01-23T02:36:27.664Z,993.71
2019-01-23T02:36:53.814Z,993.72
2019-01-23T02:37:19.969Z,993.68
2019-01-23T02:37:46.153Z,993.69
2019-01-23T02:38:12.312Z,993.69
2019-01-23T02:38:38.543Z,993.7
2019-01-23T02:39:04.700Z,993.66
2019-01-23T02:39:30.860Z,993.66
2019-01-23T02:39:57.010Z,993.7
2019-01-23T02:40:23.161Z,993.68
2019-01-23T02:40:49.323Z,993.68
2019-01-23T02:41:15.465Z,993.66
2019-01-23T02:41:41.668Z,993.66
2019-01-23T02:42:07.821Z,993.65
2019-01-23T02:42:33.972Z,993.63
2019-01-23T02:43:00.130Z,993.63
2019-01-23T02:43:26.281Z,993.66
2019-01-23T02:43:52.458Z,993.61
2019-01-23T02:44:18.579Z,993.62
2019-01-23T02:44:44.728Z,993.61
2019-01-23T02:45:10.886Z,993.59
2019-01-23T02:45:37.078Z,993.58
2019-01-23T02:46:03.234Z,993.57
2019-01-23T02:46:29.393Z,993.61
2019-01-23T02:46:55.544Z,993.57
2019-01-23T02:47:21.690Z,993.54
2019-01-23T02:47:47.887Z,993.55
2019-01-23T02:48:14.045Z,993.57
2019-01-23T02:48:40.197Z,993.57
2019-01-23T02:49:06.396Z,993.59
2019-01-23T02:49:32.549Z,993.57
2019-01-23T02:49:58.745Z,993.55
2019-01-23T02:50:24.929Z,993.57
2019-01-23T02:50:51.089Z,993.52
2019-01-23T02:51:17.314Z,993.53
2019-01-23T02:51:43.468Z,993.53
2019-01-23T02:52:09.662Z,993.47
2019-01-23T02:52:35.863Z,993.53
2019-01-23T02:53:02.081Z,993.49
2019-01-23T02:53:28.237Z,993.51
2019-01-23T02:53:54.390Z,993.53
2019-01-23T02:54:20.631Z,993.49
2019-01-23T02:54:46.871Z,993.5
2019-01-23T02:55:13.045Z,993.46
2019-01-23T02:55:39.233Z,993.5
2019-01-23T02:56:05.391Z,993.49
2019-01-23T02:56:31.544Z,993.52
2019-01-23T02:56:57.686Z,993.47
2019-01-23T02:57:23.845Z,993.48
2019-01-23T02:57:50.002Z,993.48
2019-01-23T02:58:16.150Z,993.52
2019-01-23T02:58:42.303Z,993.48
2019-01-23T02:59:08.459Z,993.54
2019-01-23T02:59:35.644Z,993.45
2019-01-23T03:00:01.877Z,993.55
2019-01-23T03:00:28.071Z,993.52
2019-01-23T03:00:54.260Z,993.54
2019-01-23T03:01:20.477Z,993.5
2019-01-23T03:01:46.628Z,993.5
2019-01-23T03:02:12.862Z,993.47
2019-01-23T03:02:39.010Z,993.48
2019-01-23T03:03:05.163Z,993.45
2019-01-23T03:03:31.321Z,993.46
2019-01-23T03:03:57.519Z,993.46
2019-01-23T03:04:23.704Z,993.48
2019-01-23T03:04:49.851Z,993.44
2019-01-23T03:05:15.996Z,993.41
2019-01-23T03:05:42.182Z,993.43
2019-01-23T03:06:08.333Z,993.4
2019-01-23T03:06:34.481Z,993.45
2019-01-23T03:07:00.672Z,993.43
2019-01-23T03:07:26.829Z,993.43
2019-01-23T03:07:53.015Z,993.42
2019-01-23T03:08:19.173Z,993.39
2019-01-23T03:08:45.329Z,993.41
2019-01-23T03:09:11.467Z,993.39
2019-01-23T03:09:37.709Z,993.42
2019-01-23T03:10:03.851Z,993.39
2019-01-23T03:10:30.008Z,993.39
2019-01-23T03:10:56.194Z,993.39
2019-01-23T03:11:22.347Z,993.37
2019-01-23T03:11:48.510Z,993.37
2019-01-23T03:12:14.700Z,993.33
2019-01-23T03:12:40.854Z,993.32
2019-01-23T03:13:07.004Z,993.36
2019-01-23T03:13:33.159Z,993.33
2019-01-23T03:13:59.384Z,993.33
2019-01-23T03:14:25.539Z,993.36
2019-01-23T03:14:51.694Z,993.34
2019-01-23T03:15:17.880Z,993.37
2019-01-23T03:15:44.032Z,993.34
2019-01-23T03:16:10.183Z,993.35
2019-01-23T03:16:36.337Z,993.34
2019-01-23T03:17:02.497Z,993.33
2019-01-23T03:17:28.648Z,993.36
2019-01-23T03:17:54.798Z,993.38
2019-01-23T03:18:20.950Z,993.38
2019-01-23T03:18:47.108Z,993.33
2019-01-23T03:19:13.300Z,993.35
2019-01-23T03:19:39.451Z,993.33
2019-01-23T03:20:05.648Z,993.35
2019-01-23T03:20:31.838Z,993.31
2019-01-23T03:20:57.992Z,993.34
2019-01-23T03:21:24.143Z,993.32
2019-01-23T03:21:50.297Z,993.31
2019-01-23T03:22:16.452Z,993.33
2019-01-23T03:22:42.608Z,993.31
2019-01-23T03:23:08.798Z,993.29
2019-01-23T03:23:34.989Z,993.28
2019-01-23T03:24:01.142Z,993.31
2019-01-23T03:24:27.301Z,993.29
2019-01-23T03:24:53.452Z,993.25
2019-01-23T03:25:19.642Z,993.33
2019-01-23T03:25:45.880Z,993.26
2019-01-23T03:26:12.024Z,993.29
2019-01-23T03:26:38.181Z,993.3
2019-01-23T03:27:04.364Z,993.3
2019-01-23T03:27:30.596Z,993.29
2019-01-23T03:27:56.781Z,993.25
2019-01-23T03:28:22.926Z,993.24
2019-01-23T03:28:49.080Z,993.23
2019-01-23T03:29:15.240Z,993.29
2019-01-23T03:29:42.375Z,993.27
2019-01-23T03:30:08.539Z,993.3
2019-01-23T03:30:34.740Z,993.28
2019-01-23T03:31:00.932Z,993.29
2019-01-23T03:31:27.160Z,993.32
2019-01-23T03:31:53.392Z,993.31
2019-01-23T03:32:19.581Z,993.29
2019-01-23T03:32:45.861Z,993.34
2019-01-23T03:33:12.071Z,993.31
2019-01-23T03:33:38.259Z,993.3
2019-01-23T03:34:04.413Z,993.35
2019-01-23T03:34:30.566Z,993.32
2019-01-23T03:34:56.725Z,993.28
2019-01-23T03:35:22.878Z,993.31
2019-01-23T03:35:49.035Z,993.29
2019-01-23T03:36:15.182Z,993.33
2019-01-23T03:36:41.335Z,993.32
2019-01-23T03:37:07.491Z,993.32
2019-01-23T03:37:33.679Z,993.36
2019-01-23T03:37:59.842Z,993.3
2019-01-23T03:38:26.033Z,993.35
2019-01-23T03:38:52.190Z,993.32
2019-01-23T03:39:18.339Z,993.37
2019-01-23T03:39:44.535Z,993.34
2019-01-23T03:40:10.724Z,993.38
2019-01-23T03:40:36.877Z,993.34
2019-01-23T03:41:03.036Z,993.38
2019-01-23T03:41:29.192Z,993.38
2019-01-23T03:41:55.377Z,993.37
2019-01-23T03:42:21.608Z,993.39
2019-01-23T03:42:47.835Z,993.36
2019-01-23T03:43:14.057Z,993.31
2019-01-23T03:43:40.215Z,993.3
2019-01-23T03:44:06.365Z,993.33
2019-01-23T03:44:32.520Z,993.33
2019-01-23T03:44:58.703Z,993.36
2019-01-23T03:45:25.882Z,993.35
2019-01-23T03:45:52.035Z,993.35
2019-01-23T03:46:18.224Z,993.35
2019-01-23T03:46:44.378Z,993.36
2019-01-23T03:47:10.530Z,993.35
2019-01-23T03:47:36.679Z,993.35
2019-01-23T03:48:02.832Z,993.38
2019-01-23T03:48:28.990Z,993.37
2019-01-23T03:48:55.149Z,993.38
2019-01-23T03:49:21.333Z,993.35
2019-01-23T03:49:47.525Z,993.37
2019-01-23T03:50:13.678Z,993.36
2019-01-23T03:50:39.827Z,993.38
2019-01-23T03:51:05.974Z,993.36
2019-01-23T03:51:32.135Z,993.34
2019-01-23T03:51:58.277Z,993.34
2019-01-23T03:52:24.433Z,993.36
2019-01-23T03:52:50.582Z,993.34
2019-01-23T03:53:16.738Z,993.37
2019-01-23T03:53:42.920Z,993.35
2019-01-23T03:54:09.110Z,993.33
2019-01-23T03:54:35.256Z,993.34
2019-01-23T03:55:01.440Z,993.31
2019-01-23T03:55:27.560Z,993.35
2019-01-23T03:55:53.716Z,993.33
2019-01-23T03:56:19.927Z,993.32
2019-01-23T03:56:46.104Z,993.32
2019-01-23T03:57:12.254Z,993.31
2019-01-23T03:57:38.446Z,993.34
2019-01-23T03:58:04.605Z,993.31
2019-01-23T03:58:30.799Z,993.32
2019-01-23T03:58:56.998Z,993.32
2019-01-23T03:59:23.151Z,993.34
2019-01-23T03:59:50.333Z,993.31
2019-01-23T04:00:16.484Z,993.35
2019-01-23T04:00:42.645Z,993.33
2019-01-23T04:01:08.821Z,993.32
2019-01-23T04:01:34.971Z,993.35
2019-01-23T04:02:01.124Z,993.33
2019-01-23T04:02:27.321Z,993.36
2019-01-23T04:02:53.514Z,993.37
2019-01-23T04:03:19.669Z,993.36
2019-01-23T04:03:45.816Z,993.35
2019-01-23T04:04:12.018Z,993.35
2019-01-23T04:04:38.209Z,993.4
2019-01-23T04:05:04.431Z,993.35
2019-01-23T04:05:31.128Z,993.38
2019-01-23T04:05:57.336Z,993.38
2019-01-23T04:06:23.568Z,993.35
2019-01-23T04:06:49.716Z,993.37
2019-01-23T04:07:15.877Z,993.35
2019-01-23T04:07:42.025Z,993.36
2019-01-23T04:08:08.176Z,993.35
2019-01-23T04:08:34.326Z,993.38
2019-01-23T04:09:00.514Z,993.35
2019-01-23T04:09:26.702Z,993.38
2019-01-23T04:09:52.854Z,993.34
2019-01-23T04:10:19.009Z,993.36
2019-01-23T04:10:45.198Z,993.37
2019-01-23T04:11:11.336Z,993.36
2019-01-23T04:11:37.475Z,993.37
2019-01-23T04:12:03.608Z,993.38
2019-01-23T04:12:29.753Z,993.43
2019-01-23T04:12:55.919Z,993.37
2019-01-23T04:13:22.043Z,993.37
2019-01-23T04:13:48.163Z,993.37
2019-01-23T04:14:14.303Z,993.34
2019-01-23T04:14:40.442Z,993.35
2019-01-23T04:15:06.552Z,993.33
2019-01-23T04:15:32.683Z,993.37
2019-01-23T04:15:58.789Z,993.35
2019-01-23T04:16:24.922Z,993.38
2019-01-23T04:16:51.023Z,993.4
2019-01-23T04:17:17.126Z,993.36
2019-01-23T04:17:43.230Z,993.37
2019-01-23T04:18:09.330Z,993.39
2019-01-23T04:18:35.429Z,993.38
2019-01-23T04:19:01.542Z,993.36
2019-01-23T04:19:27.642Z,993.31
2019-01-23T04:19:53.747Z,993.32
2019-01-23T04:20:19.856Z,993.31
2019-01-23T04:20:45.989Z,993.33
2019-01-23T04:21:12.125Z,993.31
2019-01-23T04:21:38.230Z,993.31
2019-01-23T04:22:04.329Z,993.3
2019-01-23T04:22:31.490Z,993.28
2019-01-23T04:22:57.538Z,993.29
2019-01-23T04:23:23.628Z,993.32
2019-01-23T04:23:49.758Z,993.29
2019-01-23T04:24:15.864Z,993.31
2019-01-23T04:24:41.967Z,993.3
2019-01-23T04:25:08.100Z,993.32
2019-01-23T04:25:34.233Z,993.27
2019-01-23T04:26:00.330Z,993.32
2019-01-23T04:26:26.472Z,993.31
2019-01-23T04:26:52.572Z,993.29
2019-01-23T04:27:18.707Z,993.29
2019-01-23T04:27:44.838Z,993.27
2019-01-23T04:28:10.968Z,993.29
2019-01-23T04:28:37.073Z,993.29
2019-01-23T04:29:03.182Z,993.31
2019-01-23T04:29:29.313Z,993.31
2019-01-23T04:29:56.405Z,993.31
2019-01-23T04:30:22.502Z,993.28
2019-01-23T04:30:48.613Z,993.3
2019-01-23T04:31:14.718Z,993.28
2019-01-23T04:31:40.818Z,993.25
2019-01-23T04:32:06.934Z,993.29
2019-01-23T04:32:33.060Z,993.25
2019-01-23T04:32:59.189Z,993.26
2019-01-23T04:33:25.324Z,993.23
2019-01-23T04:33:51.427Z,993.25
2019-01-23T04:34:17.561Z,993.25
2019-01-23T04:34:43.712Z,993.21
2019-01-23T04:35:09.860Z,993.24
2019-01-23T04:35:35.967Z,993.23
2019-01-23T04:36:02.067Z,993.23
2019-01-23T04:36:28.190Z,993.25
2019-01-23T04:36:54.292Z,993.21
2019-01-23T04:37:20.397Z,993.24
2019-01-23T04:37:46.527Z,993.21
2019-01-23T04:38:12.636Z,993.26
2019-01-23T04:38:38.736Z,993.21
2019-01-23T04:39:04.841Z,993.26
2019-01-23T04:39:30.951Z,993.2
2019-01-23T04:39:57.081Z,993.26
2019-01-23T04:40:23.175Z,993.25
2019-01-23T04:40:49.307Z,993.25
2019-01-23T04:41:15.449Z,993.3
2019-01-23T04:41:41.573Z,993.29
2019-01-23T04:42:07.672Z,993.28
2019-01-23T04:42:33.805Z,993.28
2019-01-23T04:42:59.943Z,993.28
2019-01-23T04:43:26.045Z,993.28
2019-01-23T04:43:52.147Z,993.28
2019-01-23T04:44:18.281Z,993.29
2019-01-23T04:44:44.410Z,993.31
2019-01-23T04:45:10.616Z,993.27
2019-01-23T04:45:36.750Z,993.3
2019-01-23T04:46:02.851Z,993.34
2019-01-23T04:46:28.954Z,993.3
2019-01-23T04:46:55.052Z,993.32
2019-01-23T04:47:21.169Z,993.31
2019-01-23T04:47:47.278Z,993.28
2019-01-23T04:48:13.407Z,993.31
2019-01-23T04:48:39.511Z,993.27
2019-01-23T04:49:05.607Z,993.31
2019-01-23T04:49:31.716Z,993.28
2019-01-23T04:49:57.813Z,993.31
2019-01-23T04:50:23.916Z,993.29
2019-01-23T04:50:50.026Z,993.29
2019-01-23T04:51:16.199Z,993.35
2019-01-23T04:51:42.320Z,993.3
2019-01-23T04:52:08.420Z,993.29
2019-01-23T04:52:34.523Z,993.31
2019-01-23T04:53:00.626Z,993.28
2019-01-23T04:53:26.748Z,993.29
2019-01-23T04:53:52.898Z,993.31
2019-01-23T04:54:18.999Z,993.33
2019-01-23T04:54:45.100Z,993.33
2019-01-23T04:55:11.204Z,993.34
2019-01-23T04:55:37.316Z,993.31
2019-01-23T04:56:03.439Z,993.33
2019-01-23T04:56:29.537Z,993.3
2019-01-23T04:56:55.651Z,993.3
2019-01-23T04:57:21.815Z,993.3
2019-01-23T04:57:47.919Z,993.34
2019-01-23T04:58:14.053Z,993.31
2019-01-23T04:58:40.194Z,993.33
2019-01-23T04:59:06.284Z,993.32
2019-01-23T04:59:32.387Z,993.31
2019-01-23T04:59:59.481Z,993.31
2019-01-23T05:00:25.611Z,993.33
2019-01-23T05:00:51.716Z,993.35
2019-01-23T05:01:17.812Z,993.36
2019-01-23T05:01:43.908Z,993.31
2019-01-23T05:02:10.043Z,993.34
2019-01-23T05:02:36.177Z,993.35
2019-01-23T05:03:02.277Z,993.33
2019-01-23T05:03:28.409Z,993.3
2019-01-23T05:03:54.517Z,993.36
2019-01-23T05:04:20.619Z,993.34
2019-01-23T05:04:46.747Z,993.32
2019-01-23T05:05:12.911Z,993.34
2019-01-23T05:05:39.045Z,993.37
2019-01-23T05:06:05.147Z,993.36
2019-01-23T05:06:31.253Z,993.32
2019-01-23T05:06:57.363Z,993.31
2019-01-23T05:07:23.463Z,993.31
2019-01-23T05:07:49.586Z,993.36
2019-01-23T05:08:15.699Z,993.33
2019-01-23T05:08:41.827Z,993.31
2019-01-23T05:09:07.932Z,993.33
2019-01-23T05:09:34.041Z,993.33
2019-01-23T05:10:00.226Z,993.3
2019-01-23T05:10:26.300Z,993.33
2019-01-23T05:10:52.397Z,993.33
2019-01-23T05:11:18.518Z,993.31
2019-01-23T05:11:44.630Z,993.35
2019-01-23T05:12:10.731Z,993.31
2019-01-23T05:12:36.869Z,993.31
2019-01-23T05:13:02.971Z,993.28
2019-01-23T05:13:29.105Z,993.32
2019-01-23T05:13:55.205Z,993.26
2019-01-23T05:14:21.306Z,993.3
2019-01-23T05:14:47.436Z,993.31
2019-01-23T05:15:13.570Z,993.32
2019-01-23T05:15:39.714Z,993.32
2019-01-23T05:16:05.871Z,993.34
2019-01-23T05:16:32.009Z,993.31
2019-01-23T05:16:58.107Z,993.34
2019-01-23T05:17:24.206Z,993.3
2019-01-23T05:17:50.309Z,993.29
2019-01-23T05:18:16.432Z,993.32
2019-01-23T05:18:42.543Z,993.32
2019-01-23T05:19:08.635Z,993.31
2019-01-23T05:19:34.744Z,993.29
2019-01-23T05:20:00.843Z,993.32
2019-01-23T05:20:26.949Z,993.25
2019-01-23T05:20:53.047Z,993.32
2019-01-23T05:21:19.152Z,993.29
2019-01-23T05:21:45.256Z,993.31
2019-01-23T05:22:11.413Z,993.31
2019-01-23T05:22:37.517Z,993.32
2019-01-23T05:23:03.619Z,993.32
2019-01-23T05:23:29.744Z,993.33
2019-01-23T05:23:55.847Z,993.32
2019-01-23T05:24:21.951Z,993.36
2019-01-23T05:24:48.057Z,993.34
2019-01-23T05:25:14.165Z,993.36
2019-01-23T05:25:40.256Z,993.33
2019-01-23T05:26:06.369Z,993.36
2019-01-23T05:26:32.470Z,993.31
2019-01-23T05:26:58.603Z,993.28
2019-01-23T05:27:24.705Z,993.32